createdAt,value
2024-03-12T00:00:46.373Z,575.00
2024-03-12T00:01:46.381Z,577.00
2024-03-12T00:02:46.344Z,574.00
2024-03-12T00:03:46.433Z,573.00
2024-03-12T00:04:46.371Z,575.00
2024-03-12T00:05:46.396Z,575.00
2024-03-12T00:06:46.555Z,576.00
2024-03-12T00:07:46.496Z,577.00
2024-03-12T00:08:46.585Z,575.00
2024-03-12T00:09:46.622Z,574.00
2024-03-12T00:10:46.659Z,574.00
2024-03-12T00:11:46.637Z,573.00
2024-03-12T00:12:46.715Z,572.00
2024-03-12T00:13:46.688Z,571.00
2024-03-12T00:14:46.719Z,570.00
2024-03-12T00:15:46.761Z,570.00
2024-03-12T00:16:46.741Z,570.00
2024-03-12T00:17:46.835Z,569.00
2024-03-12T00:18:46.887Z,572.00
2024-03-12T00:19:46.935Z,573.00
2024-03-12T00:20:47.181Z,572.00
2024-03-12T00:21:47.123Z,573.00
2024-03-12T00:22:47.272Z,573.00
2024-03-12T00:23:47.300Z,575.00
2024-03-12T00:24:47.410Z,576.00
2024-03-12T00:25:47.452Z,575.00
2024-03-12T00:26:49.158Z,577.00
2024-03-12T00:27:47.614Z,576.00
2024-03-12T00:28:47.573Z,576.00
2024-03-12T00:29:47.594Z,577.00
2024-03-12T00:30:47.627Z,576.00
2024-03-12T00:31:47.633Z,576.00
2024-03-12T00:32:47.682Z,577.00
2024-03-12T00:33:47.709Z,578.00
2024-03-12T00:34:47.688Z,578.00
2024-03-12T00:35:47.738Z,574.00
2024-03-12T00:36:47.840Z,573.00
2024-03-12T00:37:47.895Z,571.00
2024-03-12T00:38:48.052Z,573.00
2024-03-12T00:39:48.087Z,576.00
2024-03-12T00:40:48.141Z,579.00
2024-03-12T00:41:48.203Z,576.00
2024-03-12T00:42:48.308Z,575.00
2024-03-12T00:43:48.385Z,576.00
2024-03-12T00:44:48.428Z,575.00
2024-03-12T00:45:48.560Z,576.00
2024-03-12T00:46:48.514Z,578.00
2024-03-12T00:47:48.591Z,579.00
2024-03-12T00:48:48.660Z,579.00
2024-03-12T00:49:48.703Z,577.00
2024-03-12T00:50:48.777Z,576.00
2024-03-12T00:51:48.955Z,577.00
2024-03-12T00:52:48.948Z,577.00
2024-03-12T00:53:49.042Z,575.00
2024-03-12T00:54:49.135Z,575.00
2024-03-12T00:55:49.242Z,577.00
2024-03-12T00:56:49.296Z,577.00
2024-03-12T00:57:49.503Z,575.00
2024-03-12T00:58:49.476Z,572.00
2024-03-12T00:59:49.587Z,570.00
2024-03-12T01:00:49.705Z,569.00
2024-03-12T01:01:49.810Z,568.00
2024-03-12T01:02:49.867Z,569.00
2024-03-12T01:03:49.907Z,569.00
2024-03-12T01:04:49.925Z,569.00
2024-03-12T01:05:49.999Z,568.00
2024-03-12T01:06:50.160Z,567.00
2024-03-12T01:07:50.179Z,569.00
2024-03-12T01:08:50.218Z,567.00
2024-03-12T01:09:50.344Z,566.00
2024-03-12T01:10:50.313Z,566.00
2024-03-12T01:11:50.352Z,565.00
2024-03-12T01:12:50.475Z,565.00
2024-03-12T01:13:50.483Z,569.00
2024-03-12T01:14:50.510Z,570.00
2024-03-12T01:15:50.623Z,570.00
2024-03-12T01:16:50.672Z,572.00
2024-03-12T01:17:50.741Z,572.00
2024-03-12T01:18:50.822Z,570.00
2024-03-12T01:19:50.826Z,570.00
2024-03-12T01:20:50.909Z,570.00
2024-03-12T01:21:50.991Z,572.00
2024-03-12T01:22:50.985Z,573.00
2024-03-12T01:23:51.056Z,572.00
2024-03-12T01:24:51.159Z,576.00
2024-03-12T01:25:51.189Z,574.00
2024-03-12T01:26:51.244Z,578.00
2024-03-12T01:27:51.343Z,579.00
2024-03-12T01:28:51.422Z,581.00
2024-03-12T01:29:51.481Z,580.00
2024-03-12T01:30:51.567Z,580.00
2024-03-12T01:31:51.610Z,579.00
2024-03-12T01:32:51.722Z,578.00
2024-03-12T01:33:51.913Z,574.00
2024-03-12T01:34:51.794Z,572.00
2024-03-12T01:35:51.815Z,574.00
2024-03-12T01:36:51.902Z,574.00
2024-03-12T01:37:51.854Z,574.00
2024-03-12T01:38:51.863Z,573.00
2024-03-12T01:39:51.902Z,572.00
2024-03-12T01:40:51.894Z,574.00
2024-03-12T01:41:51.912Z,573.00
2024-03-12T01:42:52.011Z,571.00
2024-03-12T01:43:51.966Z,570.00
2024-03-12T01:44:52.014Z,569.00
2024-03-12T01:45:52.147Z,569.00
2024-03-12T01:46:52.176Z,571.00
2024-03-12T01:47:52.317Z,569.00
2024-03-12T01:48:52.412Z,571.00
2024-03-12T01:49:52.463Z,574.00
2024-03-12T01:50:52.472Z,574.00
2024-03-12T01:51:52.529Z,578.00
2024-03-12T01:52:52.518Z,579.00
2024-03-12T01:53:52.544Z,578.00
2024-03-12T01:54:52.577Z,575.00
2024-03-12T01:55:52.605Z,574.00
2024-03-12T01:56:52.628Z,572.00
2024-03-12T01:57:52.711Z,573.00
2024-03-12T01:58:52.678Z,571.00
2024-03-12T01:59:52.681Z,573.00
2024-03-12T02:00:52.757Z,573.00
2024-03-12T02:01:52.812Z,572.00
2024-03-12T02:02:52.809Z,573.00
2024-03-12T02:03:52.923Z,573.00
2024-03-12T02:04:52.894Z,572.00
2024-03-12T02:05:52.970Z,574.00
2024-03-12T02:06:53.060Z,573.00
2024-03-12T02:07:53.156Z,575.00
2024-03-12T02:08:53.192Z,578.00
2024-03-12T02:09:53.311Z,576.00
2024-03-12T02:10:53.428Z,577.00
2024-03-12T02:11:53.456Z,578.00
2024-03-12T02:12:53.635Z,578.00
2024-03-12T02:13:53.669Z,577.00
2024-03-12T02:14:53.740Z,576.00
2024-03-12T02:15:53.866Z,577.00
2024-03-12T02:16:53.876Z,578.00
2024-03-12T02:17:54.149Z,577.00
2024-03-12T02:18:54.013Z,578.00
2024-03-12T02:19:54.027Z,577.00
2024-03-12T02:20:54.105Z,577.00
2024-03-12T02:21:54.200Z,577.00
2024-03-12T02:22:54.222Z,578.00
2024-03-12T02:23:54.287Z,576.00
2024-03-12T02:24:54.371Z,572.00
2024-03-12T02:25:54.364Z,572.00
2024-03-12T02:26:54.402Z,572.00
2024-03-12T02:27:54.784Z,572.00
2024-03-12T02:28:54.438Z,571.00
2024-03-12T02:29:54.547Z,572.00
2024-03-12T02:30:54.530Z,574.00
2024-03-12T02:31:54.511Z,573.00
2024-03-12T02:32:54.554Z,573.00
2024-03-12T02:33:54.590Z,571.00
2024-03-12T02:34:54.576Z,570.00
2024-03-12T02:35:54.613Z,568.00
2024-03-12T02:36:54.655Z,571.00
2024-03-12T02:37:54.652Z,567.00
2024-03-12T02:38:54.666Z,568.00
2024-03-12T02:39:54.727Z,568.00
2024-03-12T02:40:54.741Z,568.00
2024-03-12T02:41:54.738Z,568.00
2024-03-12T02:42:54.812Z,568.00
2024-03-12T02:43:54.772Z,566.00
2024-03-12T02:44:54.801Z,565.00
2024-03-12T02:45:54.873Z,565.00
2024-03-12T02:46:54.878Z,564.00
2024-03-12T02:47:54.873Z,565.00
2024-03-12T02:48:54.982Z,564.00
2024-03-12T02:49:54.902Z,565.00
2024-03-12T02:50:54.953Z,567.00
2024-03-12T02:51:54.998Z,565.00
2024-03-12T02:52:54.980Z,565.00
2024-03-12T02:53:54.999Z,567.00
2024-03-12T02:54:55.101Z,567.00
2024-03-12T02:55:55.052Z,567.00
2024-03-12T02:56:55.105Z,566.00
2024-03-12T02:57:55.175Z,567.00
2024-03-12T02:58:55.157Z,570.00
2024-03-12T02:59:55.140Z,570.00
2024-03-12T03:00:55.361Z,568.00
2024-03-12T03:01:55.265Z,566.00
2024-03-12T03:02:55.205Z,567.00
2024-03-12T03:03:55.281Z,569.00
2024-03-12T03:04:55.247Z,573.00
2024-03-12T03:05:55.261Z,569.00
2024-03-12T03:06:55.310Z,571.00
2024-03-12T03:07:55.291Z,572.00
2024-03-12T03:08:55.357Z,573.00
2024-03-12T03:09:55.362Z,572.00
2024-03-12T03:10:55.413Z,570.00
2024-03-12T03:11:55.385Z,568.00
2024-03-12T03:12:55.451Z,566.00
2024-03-12T03:13:55.426Z,567.00
2024-03-12T03:14:55.472Z,567.00
2024-03-12T03:15:55.514Z,570.00
2024-03-12T03:16:55.591Z,572.00
2024-03-12T03:17:55.542Z,574.00
2024-03-12T03:18:55.568Z,574.00
2024-03-12T03:19:55.561Z,573.00
2024-03-12T03:20:55.571Z,574.00
2024-03-12T03:21:55.657Z,572.00
2024-03-12T03:22:55.624Z,574.00
2024-03-12T03:23:55.678Z,575.00
2024-03-12T03:24:55.748Z,576.00
2024-03-12T03:25:55.758Z,576.00
2024-03-12T03:26:55.814Z,576.00
2024-03-12T03:27:55.846Z,575.00
2024-03-12T03:28:55.837Z,576.00
2024-03-12T03:29:55.861Z,577.00
2024-03-12T03:30:55.958Z,577.00
2024-03-12T03:31:55.911Z,575.00
2024-03-12T03:32:56.000Z,575.00
2024-03-12T03:33:55.997Z,575.00
2024-03-12T03:34:55.973Z,575.00
2024-03-12T03:35:56.003Z,575.00
2024-03-12T03:36:56.034Z,576.00
2024-03-12T03:37:56.046Z,576.00
2024-03-12T03:38:56.068Z,577.00
2024-03-12T03:39:56.133Z,576.00
2024-03-12T03:40:56.115Z,576.00
2024-03-12T03:41:56.324Z,575.00
2024-03-12T03:42:56.185Z,575.00
2024-03-12T03:43:56.175Z,575.00
2024-03-12T03:44:56.207Z,574.00
2024-03-12T03:45:56.231Z,575.00
2024-03-12T03:46:56.239Z,577.00
2024-03-12T03:47:56.285Z,575.00
2024-03-12T03:48:56.294Z,574.00
2024-03-12T03:49:56.303Z,572.00
2024-03-12T03:50:56.324Z,575.00
2024-03-12T03:51:56.375Z,577.00
2024-03-12T03:52:56.371Z,583.00
2024-03-12T03:53:56.393Z,586.00
2024-03-12T03:54:56.442Z,589.00
2024-03-12T03:55:56.438Z,589.00
2024-03-12T03:56:56.457Z,590.00
2024-03-12T03:57:56.512Z,587.00
2024-03-12T03:58:56.488Z,583.00
2024-03-12T03:59:56.507Z,579.00
2024-03-12T04:00:56.598Z,579.00
2024-03-12T04:01:56.600Z,581.00
2024-03-12T04:02:56.565Z,582.00
2024-03-12T04:03:56.638Z,580.00
2024-03-12T04:04:56.618Z,580.00
2024-03-12T04:05:56.638Z,581.00
2024-03-12T04:06:56.698Z,581.00
2024-03-12T04:07:56.694Z,580.00
2024-03-12T04:08:56.726Z,580.00
2024-03-12T04:09:56.752Z,580.00
2024-03-12T04:10:56.840Z,581.00
2024-03-12T04:11:56.789Z,584.00
2024-03-12T04:12:56.839Z,579.00
2024-03-12T04:13:56.823Z,582.00
2024-03-12T04:14:56.860Z,585.00
2024-03-12T04:15:56.893Z,585.00
2024-03-12T04:16:56.893Z,585.00
2024-03-12T04:17:56.964Z,586.00
2024-03-12T04:18:56.964Z,588.00
2024-03-12T04:19:56.972Z,586.00
2024-03-12T04:20:56.997Z,583.00
2024-03-12T04:21:57.085Z,582.00
2024-03-12T04:22:57.214Z,578.00
2024-03-12T04:23:57.073Z,575.00
2024-03-12T04:24:57.132Z,575.00
2024-03-12T04:25:57.130Z,577.00
2024-03-12T04:26:57.157Z,576.00
2024-03-12T04:28:04.448Z,571.00
2024-03-12T04:29:04.415Z,569.00
2024-03-12T04:30:04.415Z,565.00
2024-03-12T04:31:11.706Z,577.00
2024-03-12T04:32:11.678Z,566.00
2024-03-12T04:33:11.769Z,561.00
2024-03-12T04:34:11.760Z,562.00
2024-03-12T04:35:11.829Z,564.00
2024-03-12T04:36:11.732Z,564.00
2024-03-12T04:37:11.835Z,567.00
2024-03-12T04:38:13.940Z,568.00
2024-03-12T04:39:11.786Z,569.00
2024-03-12T04:40:11.906Z,569.00
2024-03-12T04:41:11.801Z,571.00
2024-03-12T04:42:11.818Z,569.00
2024-03-12T04:43:11.881Z,572.00
2024-03-12T04:44:11.849Z,573.00
2024-03-12T04:45:11.857Z,573.00
2024-03-12T04:46:11.989Z,575.00
2024-03-12T04:47:11.874Z,573.00
2024-03-12T04:48:11.932Z,576.00
2024-03-12T04:49:12.064Z,577.00
2024-03-12T04:50:12.028Z,577.00
2024-03-12T04:51:12.214Z,576.00
2024-03-12T04:52:12.221Z,574.00
2024-03-12T04:53:12.263Z,572.00
2024-03-12T04:54:12.334Z,573.00
2024-03-12T04:55:12.433Z,573.00
2024-03-12T04:56:12.518Z,572.00
2024-03-12T04:57:12.582Z,569.00
2024-03-12T04:58:12.659Z,569.00
2024-03-12T04:59:12.707Z,568.00
2024-03-12T05:00:12.836Z,566.00
2024-03-12T05:01:12.968Z,568.00
2024-03-12T05:02:12.958Z,567.00
2024-03-12T05:03:12.997Z,569.00
2024-03-12T05:04:18.765Z,570.00
2024-03-12T05:05:13.995Z,570.00
2024-03-12T05:06:13.012Z,571.00
2024-03-12T05:07:13.164Z,573.00
2024-03-12T05:08:13.049Z,574.00
2024-03-12T05:09:13.072Z,574.00
2024-03-12T05:10:13.343Z,571.00
2024-03-12T05:11:13.166Z,570.00
2024-03-12T05:12:13.118Z,570.00
2024-03-12T05:13:13.262Z,570.00
2024-03-12T05:14:13.207Z,570.00
2024-03-12T05:15:13.227Z,569.00
2024-03-12T05:16:13.309Z,568.00
2024-03-12T05:17:13.251Z,565.00
2024-03-12T05:18:13.283Z,567.00
2024-03-12T05:19:13.623Z,570.00
2024-03-12T05:20:13.295Z,568.00
2024-03-12T05:21:13.310Z,566.00
2024-03-12T05:22:13.441Z,562.00
2024-03-12T05:23:13.354Z,565.00
2024-03-12T05:24:13.360Z,568.00
2024-03-12T05:25:13.403Z,568.00
2024-03-12T05:26:13.380Z,571.00
2024-03-12T05:27:13.394Z,571.00
2024-03-12T05:28:13.667Z,571.00
2024-03-12T05:29:13.548Z,572.00
2024-03-12T05:30:13.596Z,574.00
2024-03-12T05:31:13.727Z,574.00
2024-03-12T05:32:13.708Z,575.00
2024-03-12T05:33:13.780Z,573.00
2024-03-12T05:34:13.858Z,574.00
2024-03-12T05:35:13.814Z,574.00
2024-03-12T05:36:13.856Z,573.00
2024-03-12T05:37:14.056Z,573.00
2024-03-12T05:38:13.960Z,570.00
2024-03-12T05:39:13.999Z,569.00
2024-03-12T05:40:14.246Z,571.00
2024-03-12T05:41:14.113Z,573.00
2024-03-12T05:42:14.189Z,570.00
2024-03-12T05:43:14.260Z,574.00
2024-03-12T05:44:14.225Z,576.00
2024-03-12T05:45:14.233Z,575.00
2024-03-12T05:46:14.379Z,575.00
2024-03-12T05:47:14.256Z,579.00
2024-03-12T05:48:14.257Z,579.00
2024-03-12T05:49:14.437Z,578.00
2024-03-12T05:50:14.287Z,575.00
2024-03-12T05:51:14.292Z,576.00
2024-03-12T05:52:14.380Z,574.00
2024-03-12T05:53:14.331Z,577.00
2024-03-12T05:54:14.338Z,574.00
2024-03-12T05:55:14.423Z,578.00
2024-03-12T05:56:16.948Z,578.00
2024-03-12T05:57:14.389Z,578.00
2024-03-12T05:58:14.433Z,579.00
2024-03-12T05:59:14.413Z,571.00
2024-03-12T06:00:14.387Z,572.00
2024-03-12T06:01:14.847Z,575.00
2024-03-12T06:02:14.447Z,574.00
2024-03-12T06:03:14.427Z,574.00
2024-03-12T06:04:14.545Z,575.00
2024-03-12T06:05:14.561Z,574.00
2024-03-12T06:06:14.554Z,576.00
2024-03-12T06:07:15.825Z,576.00
2024-03-12T06:08:14.464Z,575.00
2024-03-12T06:09:14.487Z,576.00
2024-03-12T06:10:14.598Z,576.00
2024-03-12T06:11:14.544Z,577.00
2024-03-12T06:12:14.517Z,576.00
2024-03-12T06:13:14.590Z,573.00
2024-03-12T06:14:14.535Z,575.00
2024-03-12T06:15:14.539Z,574.00
2024-03-12T06:16:14.704Z,574.00
2024-03-12T06:17:14.555Z,576.00
2024-03-12T06:18:14.572Z,577.00
2024-03-12T06:19:14.704Z,577.00
2024-03-12T06:20:14.602Z,576.00
2024-03-12T06:21:14.613Z,575.00
2024-03-12T06:22:14.695Z,575.00
2024-03-12T06:23:14.649Z,576.00
2024-03-12T06:24:14.648Z,574.00
2024-03-12T06:25:14.719Z,572.00
2024-03-12T06:26:14.693Z,570.00
2024-03-12T06:27:14.700Z,571.00
2024-03-12T06:28:14.775Z,573.00
2024-03-12T06:29:14.731Z,577.00
2024-03-12T06:30:14.807Z,578.00
2024-03-12T06:31:14.943Z,580.00
2024-03-12T06:32:14.946Z,589.00
2024-03-12T06:33:15.025Z,607.00
2024-03-12T06:34:15.092Z,629.00
2024-03-12T06:35:15.024Z,652.00
2024-03-12T06:36:14.975Z,664.00
2024-03-12T06:37:15.029Z,670.00
2024-03-12T06:38:15.006Z,670.00
2024-03-12T06:39:15.145Z,677.00
2024-03-12T06:40:15.487Z,690.00
2024-03-12T06:41:15.189Z,810.00
2024-03-12T06:42:15.235Z,818.00
2024-03-12T06:43:15.583Z,830.00
2024-03-12T06:44:15.354Z,830.00
2024-03-12T06:45:15.424Z,858.00
2024-03-12T06:46:15.511Z,913.00
2024-03-12T06:47:15.551Z,916.00
2024-03-12T06:48:15.623Z,935.00
2024-03-12T06:49:15.660Z,987.00
2024-03-12T06:50:15.684Z,998.00
2024-03-12T06:51:15.702Z,994.00
2024-03-12T06:52:15.819Z,1132.00
2024-03-12T06:53:15.902Z,1030.00
2024-03-12T06:54:15.833Z,875.00
2024-03-12T06:55:17.316Z,832.00
2024-03-12T06:56:15.993Z,806.00
2024-03-12T06:57:16.105Z,731.00
2024-03-12T06:58:16.127Z,751.00
2024-03-12T06:59:16.111Z,742.00
2024-03-12T07:00:16.133Z,752.00
2024-03-12T07:01:16.153Z,761.00
2024-03-12T07:02:16.231Z,744.00
2024-03-12T07:03:16.191Z,794.00
2024-03-12T07:04:16.236Z,869.00
2024-03-12T07:05:16.210Z,864.00
2024-03-12T07:06:16.282Z,863.00
2024-03-12T07:07:16.320Z,869.00
2024-03-12T07:08:16.256Z,930.00
2024-03-12T07:09:16.272Z,958.00
2024-03-12T07:10:16.329Z,980.00
2024-03-12T07:11:16.325Z,1001.00
2024-03-12T07:12:16.335Z,1015.00
2024-03-12T07:13:16.443Z,1023.00
2024-03-12T07:14:16.421Z,1054.00
2024-03-12T07:15:16.490Z,1076.00
2024-03-12T07:16:16.632Z,1090.00
2024-03-12T07:17:16.572Z,1115.00
2024-03-12T07:18:16.604Z,1135.00
2024-03-12T07:19:16.660Z,1150.00
2024-03-12T07:20:16.758Z,1155.00
2024-03-12T07:21:16.586Z,1207.00
2024-03-12T07:22:16.620Z,1215.00
2024-03-12T07:23:16.623Z,1223.00
2024-03-12T07:24:16.633Z,1247.00
2024-03-12T07:25:16.705Z,1251.00
2024-03-12T07:26:16.646Z,1260.00
2024-03-12T07:27:16.641Z,1271.00
2024-03-12T07:28:17.430Z,1274.00
2024-03-12T07:29:16.685Z,1281.00
2024-03-12T07:30:16.670Z,1309.00
2024-03-12T07:31:16.761Z,1320.00
2024-03-12T07:32:16.738Z,1286.00
2024-03-12T07:33:16.732Z,1077.00
2024-03-12T07:34:18.650Z,1016.00
2024-03-12T07:35:16.733Z,1114.00
2024-03-12T07:36:16.749Z,954.00
2024-03-12T07:37:16.792Z,937.00
2024-03-12T07:38:16.781Z,967.00
2024-03-12T07:39:16.807Z,884.00
2024-03-12T07:40:17.368Z,895.00
2024-03-12T07:41:16.817Z,833.00
2024-03-12T07:42:16.829Z,793.00
2024-03-12T07:43:16.911Z,778.00
2024-03-12T07:44:16.853Z,732.00
2024-03-12T07:45:16.863Z,736.00
2024-03-12T07:46:16.913Z,707.00
2024-03-12T07:47:16.920Z,687.00
2024-03-12T07:48:17.137Z,678.00
2024-03-12T07:49:17.061Z,654.00
2024-03-12T07:50:17.016Z,613.00
2024-03-12T07:51:17.131Z,613.00
2024-03-12T07:52:17.139Z,615.00
2024-03-12T07:53:17.083Z,602.00
2024-03-12T07:54:17.092Z,595.00
2024-03-12T07:55:17.172Z,578.00
2024-03-12T07:56:17.226Z,575.00
2024-03-12T07:57:18.856Z,574.00
2024-03-12T07:58:17.204Z,568.00
2024-03-12T07:59:17.229Z,567.00
2024-03-12T08:00:17.262Z,565.00
2024-03-12T08:01:17.279Z,556.00
2024-03-12T08:02:17.278Z,555.00
2024-03-12T08:03:17.281Z,552.00
2024-03-12T08:04:17.467Z,560.00
2024-03-12T08:05:17.366Z,559.00
2024-03-12T08:06:17.359Z,557.00
2024-03-12T08:07:17.453Z,557.00
2024-03-12T08:08:17.411Z,559.00
2024-03-12T08:09:17.449Z,560.00
2024-03-12T08:10:17.562Z,558.00
2024-03-12T08:11:17.499Z,555.00
2024-03-12T08:12:17.925Z,554.00
2024-03-12T08:13:17.571Z,546.00
2024-03-12T08:14:17.573Z,546.00
2024-03-12T08:15:17.597Z,545.00
2024-03-12T08:16:17.677Z,545.00
2024-03-12T08:17:17.648Z,540.00
2024-03-12T08:18:21.588Z,541.00
2024-03-12T08:19:17.824Z,542.00
2024-03-12T08:20:17.755Z,540.00
2024-03-12T08:21:17.783Z,543.00
2024-03-12T08:22:17.829Z,542.00
2024-03-12T08:23:17.795Z,545.00
2024-03-12T08:24:17.838Z,547.00
2024-03-12T08:25:20.470Z,546.00
2024-03-12T08:26:17.877Z,544.00
2024-03-12T08:27:17.895Z,543.00
2024-03-12T08:28:18.007Z,543.00
2024-03-12T08:29:17.940Z,544.00
2024-03-12T08:30:17.949Z,544.00
2024-03-12T08:31:28.231Z,543.00
2024-03-12T08:32:19.016Z,542.00
2024-03-12T08:33:18.048Z,536.00
2024-03-12T08:34:18.124Z,543.00
2024-03-12T08:35:18.061Z,565.00
2024-03-12T08:36:18.087Z,561.00
2024-03-12T08:37:18.134Z,579.00
2024-03-12T08:38:18.147Z,595.00
2024-03-12T08:39:18.196Z,632.00
2024-03-12T08:40:18.268Z,666.00
2024-03-12T08:41:18.206Z,685.00
2024-03-12T08:42:18.236Z,648.00
2024-03-12T08:43:18.283Z,663.00
2024-03-12T08:44:18.304Z,651.00
2024-03-12T08:45:21.328Z,612.00
2024-03-12T08:46:18.406Z,648.00
2024-03-12T08:47:18.436Z,620.00
2024-03-12T08:48:18.452Z,615.00
2024-03-12T08:49:18.543Z,618.00
2024-03-12T08:50:18.672Z,618.00
2024-03-12T08:51:18.545Z,608.00
2024-03-12T08:52:18.644Z,614.00
2024-03-12T08:53:18.605Z,638.00
2024-03-12T08:54:18.649Z,612.00
2024-03-12T08:55:18.771Z,621.00
2024-03-12T08:56:18.736Z,598.00
2024-03-12T08:57:18.770Z,592.00
2024-03-12T08:58:18.847Z,600.00
2024-03-12T08:59:18.830Z,610.00
2024-03-12T09:00:18.885Z,618.00
2024-03-12T09:01:19.067Z,635.00
2024-03-12T09:02:18.939Z,657.00
2024-03-12T09:03:18.981Z,720.00
2024-03-12T09:04:19.194Z,801.00
2024-03-12T09:05:19.021Z,818.00
2024-03-12T09:06:19.045Z,828.00
2024-03-12T09:07:19.136Z,849.00
2024-03-12T09:08:19.130Z,873.00
2024-03-12T09:09:19.220Z,891.00
2024-03-12T09:10:19.341Z,947.00
2024-03-12T09:11:19.427Z,963.00
2024-03-12T09:12:19.386Z,987.00
2024-03-12T09:13:19.443Z,1034.00
2024-03-12T09:14:19.494Z,1090.00
2024-03-12T09:15:20.650Z,1097.00
2024-03-12T09:16:19.667Z,1105.00
2024-03-12T09:17:19.689Z,1124.00
2024-03-12T09:18:21.371Z,1188.00
2024-03-12T09:19:19.774Z,1196.00
2024-03-12T09:20:19.739Z,1209.00
2024-03-12T09:21:19.927Z,1230.00
2024-03-12T09:22:19.804Z,1273.00
2024-03-12T09:23:19.781Z,1287.00
2024-03-12T09:24:19.809Z,1291.00
2024-03-12T09:25:20.007Z,1325.00
2024-03-12T09:26:19.821Z,1333.00
2024-03-12T09:27:19.833Z,1343.00
2024-03-12T09:28:19.925Z,1361.00
2024-03-12T09:29:19.869Z,1415.00
2024-03-12T09:30:19.877Z,1422.00
2024-03-12T09:31:20.210Z,1351.00
2024-03-12T09:32:19.904Z,1276.00
2024-03-12T09:33:19.910Z,1260.00
2024-03-12T09:34:19.987Z,1251.00
2024-03-12T09:35:19.947Z,1263.00
2024-03-12T09:36:19.949Z,1277.00
2024-03-12T09:37:19.978Z,1276.00
2024-03-12T09:38:19.997Z,1269.00
2024-03-12T09:39:19.995Z,1263.00
2024-03-12T09:40:20.059Z,1246.00
2024-03-12T09:41:20.022Z,1231.00
2024-03-12T09:42:20.016Z,1208.00
2024-03-12T09:43:20.087Z,1177.00
2024-03-12T09:44:20.046Z,1161.00
2024-03-12T09:45:20.087Z,1135.00
2024-03-12T09:46:20.063Z,1120.00
2024-03-12T09:47:20.048Z,1112.00
2024-03-12T09:48:20.062Z,1108.00
2024-03-12T09:49:20.117Z,1098.00
2024-03-12T09:50:20.070Z,1086.00
2024-03-12T09:51:20.091Z,982.00
2024-03-12T09:52:20.143Z,870.00
2024-03-12T09:53:20.117Z,1006.00
2024-03-12T09:54:20.130Z,890.00
2024-03-12T09:55:20.176Z,926.00
2024-03-12T09:56:20.173Z,903.00
2024-03-12T09:57:20.152Z,895.00
2024-03-12T09:58:20.243Z,878.00
2024-03-12T09:59:20.329Z,861.00
2024-03-12T10:00:20.729Z,855.00
2024-03-12T10:01:20.490Z,900.00
2024-03-12T10:02:20.486Z,799.00
2024-03-12T10:03:20.486Z,874.00
2024-03-12T10:04:20.507Z,897.00
2024-03-12T10:05:20.474Z,898.00
2024-03-12T10:06:20.482Z,903.00
2024-03-12T10:07:20.542Z,917.00
2024-03-12T10:08:20.540Z,933.00
2024-03-12T10:09:20.517Z,957.00
2024-03-12T10:10:20.709Z,980.00
2024-03-12T10:11:20.656Z,1008.00
2024-03-12T10:12:20.550Z,1032.00
2024-03-12T10:13:20.626Z,1047.00
2024-03-12T10:14:20.583Z,1083.00
2024-03-12T10:15:20.612Z,1095.00
2024-03-12T10:16:20.654Z,1109.00
2024-03-12T10:17:20.717Z,1121.00
2024-03-12T10:18:20.816Z,1139.00
2024-03-12T10:19:20.953Z,1154.00
2024-03-12T10:20:20.936Z,1186.00
2024-03-12T10:21:21.002Z,1195.00
2024-03-12T10:22:21.097Z,1213.00
2024-03-12T10:23:21.142Z,1270.00
2024-03-12T10:24:21.210Z,1272.00
2024-03-12T10:25:21.294Z,1275.00
2024-03-12T10:26:21.315Z,1280.00
2024-03-12T10:27:21.360Z,1284.00
2024-03-12T10:28:21.435Z,1286.00
2024-03-12T10:29:21.470Z,1294.00
2024-03-12T10:30:21.507Z,1302.00
2024-03-12T10:31:21.648Z,1310.00
2024-03-12T10:32:21.539Z,1318.00
2024-03-12T10:33:21.547Z,1323.00
2024-03-12T10:34:22.041Z,1329.00
2024-03-12T10:35:21.551Z,1343.00
2024-03-12T10:36:21.554Z,1345.00
2024-03-12T10:37:21.592Z,1346.00
2024-03-12T10:38:21.565Z,1364.00
2024-03-12T10:39:21.613Z,1369.00
2024-03-12T10:40:21.765Z,1363.00
2024-03-12T10:41:22.898Z,1384.00
2024-03-12T10:42:21.570Z,1275.00
2024-03-12T10:43:22.408Z,1265.00
2024-03-12T10:44:21.606Z,802.00
2024-03-12T10:45:21.600Z,775.00
2024-03-12T10:46:21.669Z,801.00
2024-03-12T10:47:21.621Z,801.00
2024-03-12T10:48:21.696Z,810.00
2024-03-12T10:49:22.200Z,867.00
2024-03-12T10:50:21.665Z,974.00
2024-03-12T10:51:21.673Z,970.00
2024-03-12T10:52:21.712Z,975.00
2024-03-12T10:53:21.700Z,997.00
2024-03-12T10:54:21.719Z,1011.00
2024-03-12T10:55:21.735Z,1058.00
2024-03-12T10:56:21.753Z,1080.00
2024-03-12T10:57:21.763Z,1095.00
2024-03-12T10:58:21.802Z,1150.00
2024-03-12T10:59:21.770Z,1184.00
2024-03-12T11:00:21.814Z,1187.00
2024-03-12T11:01:22.016Z,1191.00
2024-03-12T11:02:21.852Z,1203.00
2024-03-12T11:03:21.879Z,1209.00
2024-03-12T11:04:21.911Z,1220.00
2024-03-12T11:05:21.907Z,1225.00
2024-03-12T11:06:21.912Z,1226.00
2024-03-12T11:07:21.942Z,1222.00
2024-03-12T11:08:21.918Z,1197.00
2024-03-12T11:09:21.921Z,1173.00
2024-03-12T11:10:21.977Z,1174.00
2024-03-12T11:11:21.981Z,1235.00
2024-03-12T11:12:21.925Z,1254.00
2024-03-12T11:13:22.086Z,1254.00
2024-03-12T11:14:21.976Z,1243.00
2024-03-12T11:15:21.951Z,1245.00
2024-03-12T11:16:22.140Z,1248.00
2024-03-12T11:17:21.955Z,1253.00
2024-03-12T11:18:21.945Z,1258.00
2024-03-12T11:19:22.136Z,1263.00
2024-03-12T11:20:24.042Z,1260.00
2024-03-12T11:21:21.969Z,1263.00
2024-03-12T11:22:22.029Z,1265.00
2024-03-12T11:23:21.963Z,1266.00
2024-03-12T11:24:21.981Z,1269.00
2024-03-12T11:25:22.007Z,1272.00
2024-03-12T11:27:22.050Z,1270.00
2024-03-12T11:28:22.393Z,1279.00
2024-03-12T11:29:22.016Z,1174.00
2024-03-12T11:30:22.025Z,1179.00
2024-03-12T11:31:22.073Z,1171.00
2024-03-12T11:32:22.038Z,1178.00
2024-03-12T11:33:22.036Z,1176.00
2024-03-12T11:34:22.065Z,1161.00
2024-03-12T11:35:22.072Z,1151.00
2024-03-12T11:36:22.110Z,1250.00
2024-03-12T11:37:22.154Z,1252.00
2024-03-12T11:38:22.141Z,1245.00
2024-03-12T11:39:22.150Z,1177.00
2024-03-12T11:40:22.151Z,1198.00
2024-03-12T11:41:22.164Z,1227.00
2024-03-12T11:42:22.166Z,1311.00
2024-03-12T11:43:22.200Z,1359.00
2024-03-12T11:44:22.189Z,1368.00
2024-03-12T11:45:22.224Z,1529.00
2024-03-12T11:46:22.417Z,1389.00
2024-03-12T11:47:22.212Z,1413.00
2024-03-12T11:48:22.241Z,1468.00
2024-03-12T11:49:22.230Z,1516.00
2024-03-12T11:50:22.238Z,1535.00
2024-03-12T11:51:22.238Z,1517.00
2024-03-12T11:52:22.249Z,1518.00
2024-03-12T11:53:22.308Z,1552.00
2024-03-12T11:54:22.353Z,1546.00
2024-03-12T11:55:22.391Z,1429.00
2024-03-12T11:56:22.437Z,1412.00
2024-03-12T11:57:22.478Z,1410.00
2024-03-12T11:58:22.517Z,1406.00
2024-03-12T11:59:22.563Z,1402.00
2024-03-12T12:00:22.661Z,1400.00
2024-03-12T12:01:22.724Z,1394.00
2024-03-12T12:02:22.625Z,1394.00
2024-03-12T12:03:22.622Z,1396.00
2024-03-12T12:04:22.665Z,1396.00
2024-03-12T12:05:22.619Z,1392.00
2024-03-12T12:06:22.628Z,1387.00
2024-03-12T12:07:22.726Z,1381.00
2024-03-12T12:08:22.653Z,1370.00
2024-03-12T12:09:22.658Z,1362.00
2024-03-12T12:10:22.715Z,1355.00
2024-03-12T12:11:22.709Z,1348.00
2024-03-12T12:12:22.674Z,1342.00
2024-03-12T12:13:22.674Z,1341.00
2024-03-12T12:14:22.680Z,1342.00
2024-03-12T12:15:22.694Z,1339.00
2024-03-12T12:16:22.790Z,1335.00
2024-03-12T12:17:22.737Z,1331.00
2024-03-12T12:18:22.795Z,1329.00
2024-03-12T12:19:27.973Z,1322.00
2024-03-12T12:20:23.832Z,1316.00
2024-03-12T12:21:22.828Z,1306.00
2024-03-12T12:22:22.947Z,1299.00
2024-03-12T12:23:22.819Z,1296.00
2024-03-12T12:24:22.849Z,1294.00